sensor_id;sensor_type;location;lat;lon;timestamp;P1;durP1;ratioP1;P2;durP2;ratioP2
51042;SDS011;37078;45.806;9.084;2022-10-16T00:01:36;19.05;;;8.23;;
51042;SDS011;37078;45.806;9.084;2022-10-16T00:04:02;17.52;;;7.97;;
51042;SDS011;37078;45.806;9.084;2022-10-16T00:06:28;15.77;;;7.55;;
51042;SDS011;37078;45.806;9.084;2022-10-16T00:08:54;18.80;;;7.93;;
51042;SDS011;37078;45.806;9.084;2022-10-16T00:11:21;17.95;;;8.05;;
51042;SDS011;37078;45.806;9.084;2022-10-16T00:13:54;16.63;;;7.93;;
51042;SDS011;37078;45.806;9.084;2022-10-16T00:16:21;17.42;;;7.70;;
51042;SDS011;37078;45.806;9.084;2022-10-16T00:18:47;17.30;;;7.43;;
51042;SDS011;37078;45.806;9.084;2022-10-16T00:21:14;16.27;;;7.57;;
51042;SDS011;37078;45.806;9.084;2022-10-16T00:23:41;17.55;;;7.47;;
51042;SDS011;37078;45.806;9.084;2022-10-16T00:26:08;18.52;;;7.65;;
51042;SDS011;37078;45.806;9.084;2022-10-16T00:28:36;16.88;;;8.02;;
51042;SDS011;37078;45.806;9.084;2022-10-16T00:31:03;15.07;;;7.45;;
51042;SDS011;37078;45.806;9.084;2022-10-16T00:33:30;16.77;;;7.27;;
51042;SDS011;37078;45.806;9.084;2022-10-16T00:35:57;16.77;;;7.63;;
51042;SDS011;37078;45.806;9.084;2022-10-16T00:38:23;19.77;;;7.68;;
51042;SDS011;37078;45.806;9.084;2022-10-16T00:40:49;19.02;;;8.00;;
51042;SDS011;37078;45.806;9.084;2022-10-16T00:43:32;18.38;;;8.18;;
51042;SDS011;37078;45.806;9.084;2022-10-16T00:46:14;21.98;;;7.47;;
51042;SDS011;37078;45.806;9.084;2022-10-16T00:48:40;14.85;;;7.20;;
51042;SDS011;37078;45.806;9.084;2022-10-16T00:51:07;15.10;;;7.28;;
51042;SDS011;37078;45.806;9.084;2022-10-16T00:53:33;16.02;;;7.57;;
51042;SDS011;37078;45.806;9.084;2022-10-16T00:55:59;16.58;;;7.70;;
51042;SDS011;37078;45.806;9.084;2022-10-16T00:58:24;16.33;;;7.85;;
51042;SDS011;37078;45.806;9.084;2022-10-16T01:00:49;20.13;;;7.50;;
51042;SDS011;37078;45.806;9.084;2022-10-16T01:03:23;16.95;;;7.63;;
51042;SDS011;37078;45.806;9.084;2022-10-16T01:06:27;16.15;;;6.80;;
51042;SDS011;37078;45.806;9.084;2022-10-16T01:11:34;16.38;;;7.25;;
51042;SDS011;37078;45.806;9.084;2022-10-16T01:14:15;15.82;;;7.22;;
51042;SDS011;37078;45.806;9.084;2022-10-16T01:22:19;16.30;;;7.55;;
51042;SDS011;37078;45.806;9.084;2022-10-16T01:24:50;19.23;;;7.25;;
51042;SDS011;37078;45.806;9.084;2022-10-16T01:29:56;18.15;;;7.32;;
51042;SDS011;37078;45.806;9.084;2022-10-16T01:35:23;18.83;;;7.72;;
51042;SDS011;37078;45.806;9.084;2022-10-16T01:40:29;16.85;;;7.28;;
51042;SDS011;37078;45.806;9.084;2022-10-16T01:43:00;16.58;;;7.55;;
51042;SDS011;37078;45.806;9.084;2022-10-16T01:45:30;18.13;;;7.25;;
51042;SDS011;37078;45.806;9.084;2022-10-16T01:47:58;14.93;;;7.07;;
51042;SDS011;37078;45.806;9.084;2022-10-16T01:50:29;15.85;;;6.80;;
51042;SDS011;37078;45.806;9.084;2022-10-16T01:52:56;15.50;;;6.80;;
51042;SDS011;37078;45.806;9.084;2022-10-16T01:55:24;15.88;;;7.03;;
51042;SDS011;37078;45.806;9.084;2022-10-16T01:57:54;16.48;;;7.45;;
51042;SDS011;37078;45.806;9.084;2022-10-16T02:00:21;18.55;;;7.60;;
51042;SDS011;37078;45.806;9.084;2022-10-16T02:02:49;15.95;;;7.15;;
51042;SDS011;37078;45.806;9.084;2022-10-16T02:05:31;15.85;;;7.35;;
51042;SDS011;37078;45.806;9.084;2022-10-16T02:08:02;16.65;;;7.18;;
51042;SDS011;37078;45.806;9.084;2022-10-16T02:10:28;15.40;;;6.60;;
51042;SDS011;37078;45.806;9.084;2022-10-16T02:13:06;19.50;;;7.60;;
51042;SDS011;37078;45.806;9.084;2022-10-16T02:15:32;18.08;;;6.88;;
51042;SDS011;37078;45.806;9.084;2022-10-16T02:17:58;29.52;;;7.43;;
51042;SDS011;37078;45.806;9.084;2022-10-16T02:20:25;22.60;;;7.75;;
51042;SDS011;37078;45.806;9.084;2022-10-16T02:22:52;17.38;;;6.80;;
51042;SDS011;37078;45.806;9.084;2022-10-16T02:25:29;16.13;;;6.75;;
51042;SDS011;37078;45.806;9.084;2022-10-16T02:30:52;16.20;;;7.20;;
51042;SDS011;37078;45.806;9.084;2022-10-16T02:33:23;15.95;;;6.85;;
51042;SDS011;37078;45.806;9.084;2022-10-16T02:35:50;16.20;;;6.80;;
51042;SDS011;37078;45.806;9.084;2022-10-16T02:38:17;16.08;;;6.63;;
51042;SDS011;37078;45.806;9.084;2022-10-16T02:40:45;15.80;;;7.07;;
51042;SDS011;37078;45.806;9.084;2022-10-16T02:43:11;15.00;;;6.57;;
51042;SDS011;37078;45.806;9.084;2022-10-16T02:45:36;14.60;;;6.30;;
51042;SDS011;37078;45.806;9.084;2022-10-16T02:48:02;15.05;;;7.18;;
51042;SDS011;37078;45.806;9.084;2022-10-16T02:50:27;16.40;;;7.80;;
51042;SDS011;37078;45.806;9.084;2022-10-16T02:52:53;16.00;;;6.78;;
51042;SDS011;37078;45.806;9.084;2022-10-16T02:55:18;16.65;;;7.00;;
51042;SDS011;37078;45.806;9.084;2022-10-16T02:57:44;16.83;;;6.88;;
51042;SDS011;37078;45.806;9.084;2022-10-16T03:00:09;15.73;;;6.90;;
51042;SDS011;37078;45.806;9.084;2022-10-16T03:02:38;14.50;;;6.67;;
51042;SDS011;37078;45.806;9.084;2022-10-16T03:05:03;17.40;;;6.80;;
51042;SDS011;37078;45.806;9.084;2022-10-16T03:07:29;17.38;;;6.90;;
51042;SDS011;37078;45.806;9.084;2022-10-16T03:09:54;17.98;;;6.28;;
51042;SDS011;37078;45.806;9.084;2022-10-16T03:12:20;16.08;;;7.00;;
51042;SDS011;37078;45.806;9.084;2022-10-16T03:14:46;16.02;;;6.85;;
51042;SDS011;37078;45.806;9.084;2022-10-16T03:17:12;16.77;;;6.90;;
51042;SDS011;37078;45.806;9.084;2022-10-16T03:19:38;17.58;;;6.70;;
51042;SDS011;37078;45.806;9.084;2022-10-16T03:22:03;15.52;;;6.65;;
51042;SDS011;37078;45.806;9.084;2022-10-16T03:24:28;14.55;;;6.68;;
51042;SDS011;37078;45.806;9.084;2022-10-16T03:26:54;14.43;;;6.05;;
51042;SDS011;37078;45.806;9.084;2022-10-16T03:29:19;13.80;;;6.28;;
51042;SDS011;37078;45.806;9.084;2022-10-16T03:31:45;17.00;;;6.82;;
51042;SDS011;37078;45.806;9.084;2022-10-16T03:34:10;15.23;;;6.53;;
51042;SDS011;37078;45.806;9.084;2022-10-16T03:36:35;18.20;;;6.75;;
51042;SDS011;37078;45.806;9.084;2022-10-16T03:39:01;16.50;;;6.80;;
51042;SDS011;37078;45.806;9.084;2022-10-16T03:41:27;16.15;;;7.00;;
51042;SDS011;37078;45.806;9.084;2022-10-16T03:43:52;16.13;;;6.38;;
51042;SDS011;37078;45.806;9.084;2022-10-16T03:46:17;17.50;;;6.75;;
51042;SDS011;37078;45.806;9.084;2022-10-16T03:48:43;17.63;;;6.13;;
51042;SDS011;37078;45.806;9.084;2022-10-16T03:51:08;15.00;;;6.75;;
51042;SDS011;37078;45.806;9.084;2022-10-16T03:53:33;16.77;;;6.47;;
51042;SDS011;37078;45.806;9.084;2022-10-16T03:55:59;16.73;;;6.68;;
51042;SDS011;37078;45.806;9.084;2022-10-16T03:58:25;14.55;;;6.60;;
51042;SDS011;37078;45.806;9.084;2022-10-16T04:00:50;16.63;;;6.97;;
51042;SDS011;37078;45.806;9.084;2022-10-16T04:03:16;15.95;;;6.18;;
51042;SDS011;37078;45.806;9.084;2022-10-16T04:05:42;17.10;;;6.93;;
51042;SDS011;37078;45.806;9.084;2022-10-16T04:08:07;18.27;;;6.65;;
51042;SDS011;37078;45.806;9.084;2022-10-16T04:10:33;15.07;;;5.95;;
51042;SDS011;37078;45.806;9.084;2022-10-16T04:12:58;15.18;;;6.78;;
51042;SDS011;37078;45.806;9.084;2022-10-16T04:15:24;13.77;;;5.90;;
51042;SDS011;37078;45.806;9.084;2022-10-16T04:17:50;13.73;;;6.07;;
51042;SDS011;37078;45.806;9.084;2022-10-16T04:20:16;14.13;;;6.30;;
51042;SDS011;37078;45.806;9.084;2022-10-16T04:22:42;16.33;;;6.10;;
51042;SDS011;37078;45.806;9.084;2022-10-16T04:25:07;15.18;;;6.28;;
51042;SDS011;37078;45.806;9.084;2022-10-16T04:27:33;20.58;;;6.90;;
51042;SDS011;37078;45.806;9.084;2022-10-16T04:29:59;15.55;;;6.25;;
51042;SDS011;37078;45.806;9.084;2022-10-16T04:32:25;13.80;;;6.20;;
51042;SDS011;37078;45.806;9.084;2022-10-16T04:34:51;14.32;;;6.03;;
51042;SDS011;37078;45.806;9.084;2022-10-16T04:37:17;15.73;;;5.90;;
51042;SDS011;37078;45.806;9.084;2022-10-16T04:39:42;15.70;;;6.78;;
51042;SDS011;37078;45.806;9.084;2022-10-16T04:42:07;13.32;;;5.95;;
51042;SDS011;37078;45.806;9.084;2022-10-16T04:44:33;16.48;;;6.30;;
51042;SDS011;37078;45.806;9.084;2022-10-16T04:46:58;13.32;;;6.03;;
51042;SDS011;37078;45.806;9.084;2022-10-16T04:49:23;13.95;;;6.38;;
51042;SDS011;37078;45.806;9.084;2022-10-16T04:51:49;15.48;;;5.55;;
51042;SDS011;37078;45.806;9.084;2022-10-16T04:54:14;14.32;;;6.32;;
51042;SDS011;37078;45.806;9.084;2022-10-16T04:56:40;13.98;;;6.40;;
51042;SDS011;37078;45.806;9.084;2022-10-16T04:59:12;13.80;;;5.90;;
51042;SDS011;37078;45.806;9.084;2022-10-16T05:01:38;15.27;;;6.72;;
51042;SDS011;37078;45.806;9.084;2022-10-16T05:04:04;16.13;;;6.05;;
51042;SDS011;37078;45.806;9.084;2022-10-16T05:06:29;14.75;;;6.07;;
51042;SDS011;37078;45.806;9.084;2022-10-16T05:08:55;12.98;;;5.78;;
51042;SDS011;37078;45.806;9.084;2022-10-16T05:11:20;16.80;;;6.10;;
51042;SDS011;37078;45.806;9.084;2022-10-16T05:13:45;16.55;;;5.88;;
51042;SDS011;37078;45.806;9.084;2022-10-16T05:16:11;16.83;;;6.07;;
51042;SDS011;37078;45.806;9.084;2022-10-16T05:18:36;13.10;;;5.90;;
51042;SDS011;37078;45.806;9.084;2022-10-16T05:21:01;16.75;;;5.90;;
51042;SDS011;37078;45.806;9.084;2022-10-16T05:23:27;13.48;;;5.90;;
51042;SDS011;37078;45.806;9.084;2022-10-16T05:25:56;13.95;;;5.78;;
51042;SDS011;37078;45.806;9.084;2022-10-16T05:28:24;17.65;;;6.40;;
51042;SDS011;37078;45.806;9.084;2022-10-16T05:30:50;15.75;;;5.65;;
51042;SDS011;37078;45.806;9.084;2022-10-16T05:33:16;17.02;;;6.68;;
51042;SDS011;37078;45.806;9.084;2022-10-16T05:35:42;14.85;;;5.93;;
51042;SDS011;37078;45.806;9.084;2022-10-16T05:38:08;15.57;;;6.35;;
51042;SDS011;37078;45.806;9.084;2022-10-16T05:40:34;16.30;;;5.93;;
51042;SDS011;37078;45.806;9.084;2022-10-16T05:43:00;13.75;;;6.10;;
51042;SDS011;37078;45.806;9.084;2022-10-16T05:45:25;19.25;;;6.85;;
51042;SDS011;37078;45.806;9.084;2022-10-16T05:47:51;15.05;;;5.95;;
51042;SDS011;37078;45.806;9.084;2022-10-16T05:50:16;14.35;;;6.25;;
51042;SDS011;37078;45.806;9.084;2022-10-16T05:52:41;14.50;;;5.43;;
51042;SDS011;37078;45.806;9.084;2022-10-16T05:55:07;12.90;;;5.90;;
51042;SDS011;37078;45.806;9.084;2022-10-16T05:57:32;15.00;;;6.10;;
51042;SDS011;37078;45.806;9.084;2022-10-16T05:59:58;15.00;;;5.82;;
51042;SDS011;37078;45.806;9.084;2022-10-16T06:02:23;14.30;;;5.88;;
51042;SDS011;37078;45.806;9.084;2022-10-16T06:04:48;14.18;;;6.40;;
51042;SDS011;37078;45.806;9.084;2022-10-16T06:07:14;19.75;;;7.00;;
51042;SDS011;37078;45.806;9.084;2022-10-16T06:09:39;24.23;;;12.90;;
51042;SDS011;37078;45.806;9.084;2022-10-16T06:12:04;22.73;;;13.18;;
51042;SDS011;37078;45.806;9.084;2022-10-16T06:14:30;23.45;;;11.48;;
51042;SDS011;37078;45.806;9.084;2022-10-16T06:16:55;25.60;;;11.73;;
51042;SDS011;37078;45.806;9.084;2022-10-16T06:19:21;28.33;;;9.80;;
51042;SDS011;37078;45.806;9.084;2022-10-16T06:21:47;26.73;;;10.63;;
51042;SDS011;37078;45.806;9.084;2022-10-16T06:24:13;24.90;;;10.70;;
51042;SDS011;37078;45.806;9.084;2022-10-16T06:26:38;22.13;;;9.55;;
51042;SDS011;37078;45.806;9.084;2022-10-16T06:29:04;25.17;;;10.25;;
51042;SDS011;37078;45.806;9.084;2022-10-16T06:31:29;21.23;;;9.50;;
51042;SDS011;37078;45.806;9.084;2022-10-16T06:33:56;19.75;;;8.60;;
51042;SDS011;37078;45.806;9.084;2022-10-16T06:36:23;17.45;;;9.13;;
51042;SDS011;37078;45.806;9.084;2022-10-16T06:38:49;18.35;;;8.75;;
51042;SDS011;37078;45.806;9.084;2022-10-16T06:41:15;17.23;;;8.80;;
51042;SDS011;37078;45.806;9.084;2022-10-16T06:43:42;19.05;;;8.48;;
51042;SDS011;37078;45.806;9.084;2022-10-16T06:46:09;16.25;;;7.93;;
51042;SDS011;37078;45.806;9.084;2022-10-16T06:48:36;17.38;;;8.40;;
51042;SDS011;37078;45.806;9.084;2022-10-16T06:51:06;21.52;;;8.80;;
51042;SDS011;37078;45.806;9.084;2022-10-16T06:53:34;19.17;;;8.18;;
51042;SDS011;37078;45.806;9.084;2022-10-16T06:56:11;15.85;;;7.82;;
51042;SDS011;37078;45.806;9.084;2022-10-16T06:58:39;18.15;;;7.78;;
51042;SDS011;37078;45.806;9.084;2022-10-16T07:01:05;19.50;;;8.43;;
51042;SDS011;37078;45.806;9.084;2022-10-16T07:03:31;20.58;;;8.23;;
51042;SDS011;37078;45.806;9.084;2022-10-16T07:05:57;17.02;;;7.70;;
51042;SDS011;37078;45.806;9.084;2022-10-16T07:08:27;18.15;;;8.23;;
51042;SDS011;37078;45.806;9.084;2022-10-16T07:11:00;18.40;;;8.32;;
51042;SDS011;37078;45.806;9.084;2022-10-16T07:13:26;15.60;;;7.63;;
51042;SDS011;37078;45.806;9.084;2022-10-16T07:15:52;16.75;;;7.95;;
51042;SDS011;37078;45.806;9.084;2022-10-16T07:18:17;16.98;;;7.47;;
51042;SDS011;37078;45.806;9.084;2022-10-16T07:20:43;18.13;;;8.10;;
51042;SDS011;37078;45.806;9.084;2022-10-16T07:23:08;18.30;;;8.20;;
51042;SDS011;37078;45.806;9.084;2022-10-16T07:25:34;18.02;;;8.20;;
51042;SDS011;37078;45.806;9.084;2022-10-16T07:27:59;18.20;;;8.18;;
51042;SDS011;37078;45.806;9.084;2022-10-16T07:30:24;18.75;;;8.05;;
51042;SDS011;37078;45.806;9.084;2022-10-16T07:32:50;18.10;;;8.25;;
51042;SDS011;37078;45.806;9.084;2022-10-16T07:35:15;17.40;;;7.78;;
51042;SDS011;37078;45.806;9.084;2022-10-16T07:37:43;16.35;;;8.38;;
51042;SDS011;37078;45.806;9.084;2022-10-16T07:40:10;16.40;;;8.18;;
51042;SDS011;37078;45.806;9.084;2022-10-16T07:42:36;17.38;;;7.97;;
51042;SDS011;37078;45.806;9.084;2022-10-16T07:45:01;21.05;;;8.18;;
51042;SDS011;37078;45.806;9.084;2022-10-16T07:47:26;16.80;;;7.72;;
51042;SDS011;37078;45.806;9.084;2022-10-16T07:49:52;16.77;;;7.57;;
51042;SDS011;37078;45.806;9.084;2022-10-16T07:52:17;17.27;;;8.13;;
51042;SDS011;37078;45.806;9.084;2022-10-16T07:54:42;20.83;;;8.18;;
51042;SDS011;37078;45.806;9.084;2022-10-16T07:57:08;16.33;;;7.63;;
51042;SDS011;37078;45.806;9.084;2022-10-16T07:59:33;20.20;;;8.55;;
51042;SDS011;37078;45.806;9.084;2022-10-16T08:01:58;20.33;;;7.85;;
51042;SDS011;37078;45.806;9.084;2022-10-16T08:04:24;18.38;;;7.82;;
51042;SDS011;37078;45.806;9.084;2022-10-16T08:06:49;16.67;;;8.25;;
51042;SDS011;37078;45.806;9.084;2022-10-16T08:09:14;27.55;;;10.27;;
51042;SDS011;37078;45.806;9.084;2022-10-16T08:11:40;19.33;;;8.65;;
51042;SDS011;37078;45.806;9.084;2022-10-16T08:14:05;19.42;;;8.60;;
51042;SDS011;37078;45.806;9.084;2022-10-16T08:16:31;18.42;;;8.10;;
51042;SDS011;37078;45.806;9.084;2022-10-16T08:18:56;20.10;;;8.02;;
51042;SDS011;37078;45.806;9.084;2022-10-16T08:21:22;16.60;;;7.70;;
51042;SDS011;37078;45.806;9.084;2022-10-16T08:23:48;18.42;;;8.38;;
51042;SDS011;37078;45.806;9.084;2022-10-16T08:26:14;17.70;;;7.85;;
51042;SDS011;37078;45.806;9.084;2022-10-16T08:28:40;17.63;;;8.25;;
51042;SDS011;37078;45.806;9.084;2022-10-16T08:31:09;17.38;;;7.95;;
51042;SDS011;37078;45.806;9.084;2022-10-16T08:33:37;20.17;;;8.02;;
51042;SDS011;37078;45.806;9.084;2022-10-16T08:36:04;17.92;;;8.13;;
51042;SDS011;37078;45.806;9.084;2022-10-16T08:38:30;16.15;;;7.57;;
51042;SDS011;37078;45.806;9.084;2022-10-16T08:41:20;19.35;;;8.52;;
51042;SDS011;37078;45.806;9.084;2022-10-16T08:48:58;17.23;;;7.97;;
51042;SDS011;37078;45.806;9.084;2022-10-16T08:53:56;15.57;;;7.60;;
51042;SDS011;37078;45.806;9.084;2022-10-16T08:56:24;18.75;;;8.52;;
51042;SDS011;37078;45.806;9.084;2022-10-16T08:58:51;17.65;;;7.35;;
51042;SDS011;37078;45.806;9.084;2022-10-16T09:01:17;15.63;;;7.93;;
51042;SDS011;37078;45.806;9.084;2022-10-16T09:03:54;16.50;;;7.82;;
51042;SDS011;37078;45.806;9.084;2022-10-16T09:11:50;15.88;;;7.80;;
51042;SDS011;37078;45.806;9.084;2022-10-16T09:17:19;21.35;;;8.15;;
51042;SDS011;37078;45.806;9.084;2022-10-16T09:19:51;16.92;;;8.63;;
51042;SDS011;37078;45.806;9.084;2022-10-16T09:22:27;16.60;;;7.78;;
51042;SDS011;37078;45.806;9.084;2022-10-16T09:24:54;17.08;;;7.68;;
51042;SDS011;37078;45.806;9.084;2022-10-16T09:27:24;15.63;;;7.78;;
51042;SDS011;37078;45.806;9.084;2022-10-16T09:29:49;17.42;;;7.50;;
51042;SDS011;37078;45.806;9.084;2022-10-16T09:32:19;19.10;;;7.80;;
51042;SDS011;37078;45.806;9.084;2022-10-16T09:34:48;16.27;;;7.63;;
51042;SDS011;37078;45.806;9.084;2022-10-16T09:37:19;15.77;;;7.50;;
51042;SDS011;37078;45.806;9.084;2022-10-16T09:39:48;14.75;;;7.88;;
51042;SDS011;37078;45.806;9.084;2022-10-16T09:42:18;14.70;;;7.22;;
51042;SDS011;37078;45.806;9.084;2022-10-16T09:47:16;15.73;;;7.85;;
51042;SDS011;37078;45.806;9.084;2022-10-16T09:49:56;15.52;;;7.82;;
51042;SDS011;37078;45.806;9.084;2022-10-16T09:52:26;15.27;;;7.43;;
51042;SDS011;37078;45.806;9.084;2022-10-16T09:54:56;16.90;;;8.30;;
51042;SDS011;37078;45.806;9.084;2022-10-16T09:57:48;16.33;;;8.18;;
51042;SDS011;37078;45.806;9.084;2022-10-16T10:00:17;16.73;;;7.55;;
51042;SDS011;37078;45.806;9.084;2022-10-16T10:02:43;16.42;;;7.32;;
51042;SDS011;37078;45.806;9.084;2022-10-16T10:05:23;15.88;;;7.25;;
51042;SDS011;37078;45.806;9.084;2022-10-16T10:08:00;16.10;;;8.00;;
51042;SDS011;37078;45.806;9.084;2022-10-16T10:10:32;14.32;;;7.18;;
51042;SDS011;37078;45.806;9.084;2022-10-16T10:13:00;14.70;;;7.32;;
51042;SDS011;37078;45.806;9.084;2022-10-16T10:15:26;15.25;;;7.68;;
51042;SDS011;37078;45.806;9.084;2022-10-16T10:17:57;16.30;;;7.95;;
51042;SDS011;37078;45.806;9.084;2022-10-16T10:20:27;15.82;;;7.57;;
51042;SDS011;37078;45.806;9.084;2022-10-16T10:22:56;16.20;;;7.75;;
51042;SDS011;37078;45.806;9.084;2022-10-16T10:36:12;16.10;;;7.53;;
51042;SDS011;37078;45.806;9.084;2022-10-16T10:38:59;15.02;;;7.60;;
51042;SDS011;37078;45.806;9.084;2022-10-16T10:49:51;15.45;;;7.65;;
51042;SDS011;37078;45.806;9.084;2022-10-16T10:52:43;15.13;;;7.45;;
51042;SDS011;37078;45.806;9.084;2022-10-16T11:08:59;15.65;;;7.82;;
51042;SDS011;37078;45.806;9.084;2022-10-16T11:11:56;15.13;;;7.15;;
51042;SDS011;37078;45.806;9.084;2022-10-16T11:14:28;13.70;;;7.03;;
51042;SDS011;37078;45.806;9.084;2022-10-16T11:17:00;14.60;;;7.20;;
51042;SDS011;37078;45.806;9.084;2022-10-16T11:30:48;17.40;;;7.57;;
51042;SDS011;37078;45.806;9.084;2022-10-16T11:35:44;15.82;;;7.40;;
51042;SDS011;37078;45.806;9.084;2022-10-16T11:38:37;15.73;;;7.90;;
51042;SDS011;37078;45.806;9.084;2022-10-16T11:46:31;16.08;;;7.25;;
51042;SDS011;37078;45.806;9.084;2022-10-16T11:49:12;15.27;;;7.45;;
51042;SDS011;37078;45.806;9.084;2022-10-16T11:54:39;16.92;;;7.47;;
51042;SDS011;37078;45.806;9.084;2022-10-16T11:57:23;14.63;;;7.03;;
51042;SDS011;37078;45.806;9.084;2022-10-16T11:59:58;15.45;;;7.10;;
51042;SDS011;37078;45.806;9.084;2022-10-16T12:08:09;15.63;;;7.88;;
51042;SDS011;37078;45.806;9.084;2022-10-16T12:10:36;14.57;;;7.43;;
51042;SDS011;37078;45.806;9.084;2022-10-16T12:13:48;16.73;;;7.20;;
51042;SDS011;37078;45.806;9.084;2022-10-16T12:18:33;14.75;;;7.03;;
51042;SDS011;37078;45.806;9.084;2022-10-16T12:20:58;15.07;;;8.00;;
51042;SDS011;37078;45.806;9.084;2022-10-16T12:23:30;14.57;;;7.47;;
51042;SDS011;37078;45.806;9.084;2022-10-16T12:25:57;14.75;;;7.03;;
51042;SDS011;37078;45.806;9.084;2022-10-16T12:28:28;15.27;;;7.15;;
51042;SDS011;37078;45.806;9.084;2022-10-16T12:30:56;14.68;;;7.40;;
51042;SDS011;37078;45.806;9.084;2022-10-16T12:33:25;15.65;;;7.57;;
51042;SDS011;37078;45.806;9.084;2022-10-16T12:35:53;15.38;;;7.60;;
51042;SDS011;37078;45.806;9.084;2022-10-16T12:38:38;14.55;;;7.07;;
51042;SDS011;37078;45.806;9.084;2022-10-16T12:41:12;15.55;;;7.90;;
51042;SDS011;37078;45.806;9.084;2022-10-16T12:43:48;16.65;;;7.57;;
51042;SDS011;37078;45.806;9.084;2022-10-16T12:48:41;14.43;;;7.10;;
51042;SDS011;37078;45.806;9.084;2022-10-16T13:05:16;15.02;;;7.13;;
51042;SDS011;37078;45.806;9.084;2022-10-16T13:07:55;16.42;;;7.00;;
51042;SDS011;37078;45.806;9.084;2022-10-16T13:10:41;15.38;;;6.95;;
51042;SDS011;37078;45.806;9.084;2022-10-16T13:29:54;13.88;;;6.80;;
51042;SDS011;37078;45.806;9.084;2022-10-16T13:32:27;17.90;;;8.05;;
51042;SDS011;37078;45.806;9.084;2022-10-16T13:34:54;15.43;;;7.03;;
51042;SDS011;37078;45.806;9.084;2022-10-16T13:37:21;14.77;;;6.45;;
51042;SDS011;37078;45.806;9.084;2022-10-16T13:39:48;14.77;;;7.15;;
51042;SDS011;37078;45.806;9.084;2022-10-16T13:42:26;14.35;;;7.07;;
51042;SDS011;37078;45.806;9.084;2022-10-16T13:44:53;14.95;;;7.07;;
51042;SDS011;37078;45.806;9.084;2022-10-16T13:47:20;17.00;;;7.50;;
51042;SDS011;37078;45.806;9.084;2022-10-16T13:52:44;15.35;;;7.63;;
51042;SDS011;37078;45.806;9.084;2022-10-16T13:55:17;16.40;;;8.35;;
51042;SDS011;37078;45.806;9.084;2022-10-16T13:57:43;17.20;;;9.02;;
51042;SDS011;37078;45.806;9.084;2022-10-16T14:02:45;17.05;;;8.38;;
51042;SDS011;37078;45.806;9.084;2022-10-16T14:05:18;19.08;;;8.68;;
51042;SDS011;37078;45.806;9.084;2022-10-16T14:07:43;18.40;;;9.68;;
51042;SDS011;37078;45.806;9.084;2022-10-16T14:10:20;21.95;;;9.38;;
51042;SDS011;37078;45.806;9.084;2022-10-16T14:13:00;18.60;;;9.55;;
51042;SDS011;37078;45.806;9.084;2022-10-16T14:15:29;19.20;;;10.20;;
51042;SDS011;37078;45.806;9.084;2022-10-16T14:17:56;21.65;;;10.00;;
51042;SDS011;37078;45.806;9.084;2022-10-16T14:20:26;18.75;;;10.13;;
51042;SDS011;37078;45.806;9.084;2022-10-16T14:22:59;19.42;;;10.43;;
51042;SDS011;37078;45.806;9.084;2022-10-16T14:25:28;19.70;;;10.45;;
51042;SDS011;37078;45.806;9.084;2022-10-16T14:27:57;19.33;;;9.70;;
51042;SDS011;37078;45.806;9.084;2022-10-16T14:30:25;21.77;;;10.88;;
51042;SDS011;37078;45.806;9.084;2022-10-16T14:32:58;19.17;;;10.32;;
51042;SDS011;37078;45.806;9.084;2022-10-16T14:40:20;21.80;;;11.02;;
51042;SDS011;37078;45.806;9.084;2022-10-16T14:42:50;17.92;;;8.70;;
51042;SDS011;37078;45.806;9.084;2022-10-16T14:45:18;24.17;;;10.85;;
51042;SDS011;37078;45.806;9.084;2022-10-16T14:47:49;20.50;;;11.30;;
51042;SDS011;37078;45.806;9.084;2022-10-16T14:52:43;24.70;;;12.10;;
51042;SDS011;37078;45.806;9.084;2022-10-16T14:55:09;20.30;;;10.48;;
51042;SDS011;37078;45.806;9.084;2022-10-16T14:57:35;20.60;;;10.68;;
51042;SDS011;37078;45.806;9.084;2022-10-16T15:00:06;22.80;;;11.70;;
51042;SDS011;37078;45.806;9.084;2022-10-16T15:02:38;24.00;;;11.25;;
51042;SDS011;37078;45.806;9.084;2022-10-16T15:05:19;21.67;;;11.68;;
51042;SDS011;37078;45.806;9.084;2022-10-16T15:07:50;22.15;;;10.68;;
51042;SDS011;37078;45.806;9.084;2022-10-16T15:10:16;20.73;;;10.93;;
51042;SDS011;37078;45.806;9.084;2022-10-16T15:12:42;20.20;;;10.90;;
51042;SDS011;37078;45.806;9.084;2022-10-16T15:17:53;22.38;;;11.45;;
51042;SDS011;37078;45.806;9.084;2022-10-16T15:20:22;23.13;;;11.90;;
51042;SDS011;37078;45.806;9.084;2022-10-16T15:22:49;22.58;;;11.80;;
51042;SDS011;37078;45.806;9.084;2022-10-16T15:28:09;21.23;;;11.23;;
51042;SDS011;37078;45.806;9.084;2022-10-16T15:30:36;19.75;;;11.07;;
51042;SDS011;37078;45.806;9.084;2022-10-16T15:33:03;18.65;;;9.73;;
51042;SDS011;37078;45.806;9.084;2022-10-16T15:35:29;20.20;;;11.70;;
51042;SDS011;37078;45.806;9.084;2022-10-16T15:37:55;19.42;;;10.55;;
51042;SDS011;37078;45.806;9.084;2022-10-16T15:40:21;19.40;;;10.20;;
51042;SDS011;37078;45.806;9.084;2022-10-16T15:42:47;19.77;;;10.73;;
51042;SDS011;37078;45.806;9.084;2022-10-16T15:45:13;20.70;;;10.73;;
51042;SDS011;37078;45.806;9.084;2022-10-16T15:47:40;21.15;;;10.45;;
51042;SDS011;37078;45.806;9.084;2022-10-16T15:50:06;20.33;;;10.45;;
51042;SDS011;37078;45.806;9.084;2022-10-16T15:52:32;20.08;;;10.63;;
51042;SDS011;37078;45.806;9.084;2022-10-16T15:54:58;19.27;;;10.05;;
51042;SDS011;37078;45.806;9.084;2022-10-16T15:57:23;18.30;;;9.65;;
51042;SDS011;37078;45.806;9.084;2022-10-16T15:59:49;18.05;;;9.60;;
51042;SDS011;37078;45.806;9.084;2022-10-16T16:02:15;18.70;;;9.52;;
51042;SDS011;37078;45.806;9.084;2022-10-16T16:04:40;18.50;;;9.38;;
51042;SDS011;37078;45.806;9.084;2022-10-16T16:07:06;17.23;;;9.63;;
51042;SDS011;37078;45.806;9.084;2022-10-16T16:09:34;18.58;;;9.40;;
51042;SDS011;37078;45.806;9.084;2022-10-16T16:11:59;17.73;;;8.55;;
51042;SDS011;37078;45.806;9.084;2022-10-16T16:14:26;17.98;;;9.25;;
51042;SDS011;37078;45.806;9.084;2022-10-16T16:16:53;17.33;;;9.18;;
51042;SDS011;37078;45.806;9.084;2022-10-16T16:19:19;17.05;;;9.10;;
51042;SDS011;37078;45.806;9.084;2022-10-16T16:21:46;17.42;;;8.85;;
51042;SDS011;37078;45.806;9.084;2022-10-16T16:24:11;17.25;;;9.48;;
51042;SDS011;37078;45.806;9.084;2022-10-16T16:26:37;17.23;;;8.85;;
51042;SDS011;37078;45.806;9.084;2022-10-16T16:29:04;19.40;;;9.30;;
51042;SDS011;37078;45.806;9.084;2022-10-16T16:31:31;15.82;;;8.70;;
51042;SDS011;37078;45.806;9.084;2022-10-16T16:33:57;17.48;;;8.93;;
51042;SDS011;37078;45.806;9.084;2022-10-16T16:36:23;16.40;;;8.68;;
51042;SDS011;37078;45.806;9.084;2022-10-16T16:38:50;16.98;;;9.27;;
51042;SDS011;37078;45.806;9.084;2022-10-16T16:41:16;18.00;;;8.95;;
51042;SDS011;37078;45.806;9.084;2022-10-16T16:43:44;17.25;;;8.77;;
51042;SDS011;37078;45.806;9.084;2022-10-16T16:46:10;16.52;;;8.63;;
51042;SDS011;37078;45.806;9.084;2022-10-16T16:48:36;17.52;;;9.10;;
51042;SDS011;37078;45.806;9.084;2022-10-16T16:51:03;19.55;;;8.98;;
51042;SDS011;37078;45.806;9.084;2022-10-16T16:53:29;17.67;;;9.45;;
51042;SDS011;37078;45.806;9.084;2022-10-16T16:55:54;18.05;;;8.75;;
51042;SDS011;37078;45.806;9.084;2022-10-16T16:58:20;17.10;;;9.02;;
51042;SDS011;37078;45.806;9.084;2022-10-16T17:00:45;16.48;;;8.68;;
51042;SDS011;37078;45.806;9.084;2022-10-16T17:03:11;16.77;;;9.38;;
51042;SDS011;37078;45.806;9.084;2022-10-16T17:05:36;17.38;;;9.02;;
51042;SDS011;37078;45.806;9.084;2022-10-16T17:08:02;18.25;;;9.55;;
51042;SDS011;37078;45.806;9.084;2022-10-16T17:10:31;18.10;;;9.03;;
51042;SDS011;37078;45.806;9.084;2022-10-16T17:12:56;17.00;;;8.82;;